JST495 YBCG-YWLM
Flight info
| Callsign | JST495 |
|---|---|
| Flight time | 0h 56m |
| Altitude | 36000 |
| Route | GOMOL Q16 APAGI H91 SANAD/N0348F190 V779 LAXUM DCT WLM |
| Aircraft | A320/M-SDE3FGHIRWY/LB1 |
Departure
| Time | 2026-05-07 08:03 |
|---|---|
| Airport | Gold Coast Airport (YBCG) |
Arrival
| Time | 2026-05-07 08:59 |
|---|---|
| Airport | Newcastle Airport (YWLM) |
| Time | Latitude | Longitude | Altitude | Speed | Heading |
|---|---|---|---|---|---|
| 2026-05-07 07:52 | -28.16695 | 153.51165 | 29 ft | 0 kts | 60° |
| 2026-05-07 07:56 | -28.16704 | 153.51149 | 31 ft | 3 kts | 59° |
| 2026-05-07 07:57 | -28.16716 | 153.51127 | 30 ft | 3 kts | 53° |
| 2026-05-07 07:57 | -28.16730 | 153.51108 | 28 ft | 3 kts | 41° |
| 2026-05-07 07:57 | -28.16748 | 153.51095 | 28 ft | 3 kts | 3° |
| 2026-05-07 07:57 | -28.16758 | 153.51096 | 29 ft | 0 kts | 331° |
| 2026-05-07 07:59 | -28.16757 | 153.51096 | 29 ft | 1 kts | 331° |
| 2026-05-07 08:00 | -28.16664 | 153.51037 | 28 ft | 28 kts | 334° |
| 2026-05-07 08:00 | -28.16497 | 153.50926 | 27 ft | 22 kts | 314° |
| 2026-05-07 08:00 | -28.16480 | 153.50812 | 29 ft | 15 kts | 319° |
| 2026-05-07 08:00 | -28.16357 | 153.50736 | 27 ft | 25 kts | 331° |
| 2026-05-07 08:01 | -28.16183 | 153.50624 | 27 ft | 33 kts | 330° |
| 2026-05-07 08:01 | -28.15972 | 153.50490 | 27 ft | 36 kts | 332° |
| 2026-05-07 08:01 | -28.15749 | 153.50349 | 30 ft | 37 kts | 330° |
| 2026-05-07 08:01 | -28.15606 | 153.50212 | 28 ft | 22 kts | 276° |
| 2026-05-07 08:02 | -28.15684 | 153.50082 | 26 ft | 13 kts | 181° |
| 2026-05-07 08:02 | -28.15709 | 153.50110 | 26 ft | 0 kts | 151° |
| 2026-05-07 08:02 | -28.15756 | 153.50138 | 27 ft | 35 kts | 152° |
| 2026-05-07 08:02 | -28.16198 | 153.50417 | 27 ft | 106 kts | 151° |
| 2026-05-07 08:03 | -28.17001 | 153.50931 | 92 ft | 150 kts | 151° |
| 2026-05-07 08:03 | -28.17897 | 153.51490 | 645 ft | 151 kts | 154° |
| 2026-05-07 08:03 | -28.18818 | 153.52075 | 1165 ft | 155 kts | 156° |
| 2026-05-07 08:03 | -28.19764 | 153.52677 | 1820 ft | 158 kts | 159° |
| 2026-05-07 08:04 | -28.20828 | 153.53196 | 2176 ft | 176 kts | 165° |
| 2026-05-07 08:04 | -28.22049 | 153.53692 | 2547 ft | 197 kts | 166° |
| 2026-05-07 08:04 | -28.23435 | 153.54242 | 2914 ft | 224 kts | 165° |
| 2026-05-07 08:04 | -28.25002 | 153.54766 | 3399 ft | 245 kts | 179° |
| 2026-05-07 08:05 | -28.26647 | 153.54322 | 4094 ft | 249 kts | 216° |
| 2026-05-07 08:05 | -28.27815 | 153.52879 | 5002 ft | 252 kts | 237° |
| 2026-05-07 08:05 | -28.28705 | 153.51145 | 5966 ft | 255 kts | 243° |
| 2026-05-07 08:05 | -28.29553 | 153.49370 | 6957 ft | 257 kts | 243° |
| 2026-05-07 08:06 | -28.30431 | 153.47590 | 7868 ft | 262 kts | 242° |
| 2026-05-07 08:06 | -28.31390 | 153.45808 | 8766 ft | 266 kts | 240° |
| 2026-05-07 08:06 | -28.32416 | 153.44037 | 9693 ft | 270 kts | 240° |
| 2026-05-07 08:06 | -28.33497 | 153.42249 | 10320 ft | 285 kts | 238° |
| 2026-05-07 08:07 | -28.34672 | 153.40330 | 10629 ft | 306 kts | 238° |
| 2026-05-07 08:07 | -28.35914 | 153.38318 | 11262 ft | 314 kts | 238° |
| 2026-05-07 08:07 | -28.37179 | 153.36275 | 12040 ft | 318 kts | 238° |
| 2026-05-07 08:07 | -28.38456 | 153.34214 | 12877 ft | 320 kts | 238° |
| 2026-05-07 08:08 | -28.39741 | 153.32140 | 13698 ft | 322 kts | 238° |
| 2026-05-07 08:08 | -28.41035 | 153.30047 | 14434 ft | 324 kts | 238° |
| 2026-05-07 08:08 | -28.42337 | 153.27946 | 15143 ft | 327 kts | 238° |
| 2026-05-07 08:08 | -28.43652 | 153.25823 | 15828 ft | 330 kts | 238° |
| 2026-05-07 08:09 | -28.44973 | 153.23683 | 16551 ft | 332 kts | 239° |
| 2026-05-07 08:09 | -28.46301 | 153.21528 | 17268 ft | 334 kts | 239° |
| 2026-05-07 08:09 | -28.47638 | 153.19357 | 17967 ft | 337 kts | 239° |
| 2026-05-07 08:09 | -28.48989 | 153.17168 | 18620 ft | 339 kts | 239° |
| 2026-05-07 08:10 | -28.50348 | 153.14967 | 19249 ft | 341 kts | 240° |
| 2026-05-07 08:10 | -28.51714 | 153.12750 | 19877 ft | 344 kts | 240° |
| 2026-05-07 08:10 | -28.53088 | 153.10513 | 20506 ft | 346 kts | 240° |
| 2026-05-07 08:10 | -28.54473 | 153.08259 | 21141 ft | 349 kts | 240° |
| 2026-05-07 08:11 | -28.55851 | 153.06018 | 21752 ft | 352 kts | 240° |
| 2026-05-07 08:11 | -28.57258 | 153.03731 | 22364 ft | 354 kts | 241° |
| 2026-05-07 08:11 | -28.58675 | 153.01425 | 22990 ft | 356 kts | 241° |
| 2026-05-07 08:11 | -28.60096 | 152.99107 | 23609 ft | 359 kts | 242° |
| 2026-05-07 08:12 | -28.61531 | 152.96769 | 24106 ft | 361 kts | 242° |
| 2026-05-07 08:12 | -28.62976 | 152.94418 | 24635 ft | 362 kts | 242° |
| 2026-05-07 08:12 | -28.63933 | 152.92860 | 24979 ft | 363 kts | 243° |
| 2026-05-07 08:12 | -28.65382 | 152.90498 | 25508 ft | 364 kts | 243° |
| 2026-05-07 08:13 | -28.66834 | 152.88124 | 25995 ft | 366 kts | 243° |
| 2026-05-07 08:13 | -28.68291 | 152.85741 | 26491 ft | 367 kts | 244° |
| 2026-05-07 08:13 | -28.69754 | 152.83350 | 26957 ft | 368 kts | 244° |
| 2026-05-07 08:13 | -28.71700 | 152.80166 | 27539 ft | 371 kts | 244° |
| 2026-05-07 08:14 | -28.72698 | 152.78532 | 27802 ft | 372 kts | 245° |
| 2026-05-07 08:14 | -28.74163 | 152.76135 | 28253 ft | 375 kts | 245° |
| 2026-05-07 08:14 | -28.75673 | 152.73659 | 28718 ft | 376 kts | 245° |
| 2026-05-07 08:14 | -28.77169 | 152.71208 | 29197 ft | 378 kts | 245° |
| 2026-05-07 08:15 | -28.78654 | 152.68777 | 29655 ft | 379 kts | 245° |
| 2026-05-07 08:15 | -28.80165 | 152.66303 | 30089 ft | 381 kts | 246° |
| 2026-05-07 08:15 | -28.81679 | 152.63815 | 30480 ft | 383 kts | 246° |
| 2026-05-07 08:15 | -28.83202 | 152.61318 | 30837 ft | 386 kts | 244° |
| 2026-05-07 08:16 | -28.85019 | 152.58984 | 31221 ft | 403 kts | 234° |
| 2026-05-07 08:16 | -28.87340 | 152.57046 | 31560 ft | 426 kts | 222° |
| 2026-05-07 08:16 | -28.89983 | 152.55451 | 31885 ft | 432 kts | 220° |
| 2026-05-07 08:16 | -28.92655 | 152.53874 | 32297 ft | 432 kts | 220° |
| 2026-05-07 08:17 | -28.95321 | 152.52309 | 32762 ft | 430 kts | 220° |
| 2026-05-07 08:17 | -28.97980 | 152.50746 | 33230 ft | 429 kts | 220° |
| 2026-05-07 08:17 | -29.00631 | 152.49181 | 33694 ft | 428 kts | 220° |
| 2026-05-07 08:17 | -29.03263 | 152.47619 | 34179 ft | 426 kts | 220° |
| 2026-05-07 08:18 | -29.05889 | 152.46056 | 34607 ft | 425 kts | 221° |
| 2026-05-07 08:18 | -29.08508 | 152.44494 | 35031 ft | 424 kts | 221° |
| 2026-05-07 08:18 | -29.11083 | 152.42955 | 35430 ft | 422 kts | 221° |
| 2026-05-07 08:18 | -29.13682 | 152.41404 | 35815 ft | 420 kts | 221° |
| 2026-05-07 08:19 | -29.16273 | 152.39858 | 36041 ft | 420 kts | 221° |
| 2026-05-07 08:19 | -29.21398 | 152.36795 | 36082 ft | 413 kts | 222° |
| 2026-05-07 08:20 | -29.26467 | 152.33747 | 36077 ft | 411 kts | 222° |
| 2026-05-07 08:20 | -29.31524 | 152.30707 | 36084 ft | 412 kts | 222° |
| 2026-05-07 08:21 | -29.36623 | 152.27642 | 36092 ft | 414 kts | 221° |
| 2026-05-07 08:21 | -29.41730 | 152.24584 | 36084 ft | 414 kts | 221° |
| 2026-05-07 08:22 | -29.46837 | 152.21520 | 36095 ft | 415 kts | 222° |
| 2026-05-07 08:22 | -29.51941 | 152.18444 | 36134 ft | 414 kts | 222° |
| 2026-05-07 08:23 | -29.57053 | 152.15364 | 36109 ft | 415 kts | 221° |
| 2026-05-07 08:23 | -29.62174 | 152.12274 | 36106 ft | 416 kts | 221° |
| 2026-05-07 08:24 | -29.67295 | 152.09176 | 36100 ft | 416 kts | 221° |
| 2026-05-07 08:24 | -29.72833 | 152.06742 | 36096 ft | 443 kts | 207° |
| 2026-05-07 08:25 | -29.78849 | 152.05182 | 36105 ft | 443 kts | 206° |
| 2026-05-07 08:25 | -29.84819 | 152.03647 | 36095 ft | 442 kts | 206° |
| 2026-05-07 08:26 | -29.93825 | 152.01286 | 36099 ft | 443 kts | 206° |
| 2026-05-07 08:26 | -29.99837 | 151.99719 | 36140 ft | 443 kts | 206° |
| 2026-05-07 08:27 | -30.05853 | 151.98141 | 36127 ft | 443 kts | 206° |
| 2026-05-07 08:27 | -30.11866 | 151.96561 | 36135 ft | 444 kts | 206° |
| 2026-05-07 08:28 | -30.17882 | 151.94979 | 36138 ft | 443 kts | 206° |
| 2026-05-07 08:28 | -30.23891 | 151.93397 | 36125 ft | 443 kts | 206° |
| 2026-05-07 08:29 | -30.29864 | 151.91821 | 36124 ft | 444 kts | 206° |
| 2026-05-07 08:29 | -30.32825 | 151.90916 | 36128 ft | 433 kts | 213° |
| 2026-05-07 08:29 | -30.35604 | 151.89657 | 36133 ft | 428 kts | 215° |
| 2026-05-07 08:30 | -30.41129 | 151.87085 | 36143 ft | 428 kts | 215° |
| 2026-05-07 08:30 | -30.46658 | 151.84509 | 36165 ft | 427 kts | 216° |
| 2026-05-07 08:31 | -30.52153 | 151.81943 | 36153 ft | 425 kts | 216° |
| 2026-05-07 08:31 | -30.57639 | 151.79379 | 36163 ft | 425 kts | 216° |
| 2026-05-07 08:32 | -30.63134 | 151.76815 | 36165 ft | 426 kts | 216° |
| 2026-05-07 08:32 | -30.68637 | 151.74246 | 36199 ft | 425 kts | 216° |
| 2026-05-07 08:33 | -30.74094 | 151.71698 | 36153 ft | 421 kts | 216° |
| 2026-05-07 08:33 | -30.79496 | 151.69161 | 36149 ft | 421 kts | 216° |
| 2026-05-07 08:34 | -30.84820 | 151.66662 | 36162 ft | 422 kts | 216° |
| 2026-05-07 08:34 | -30.90269 | 151.64107 | 36218 ft | 422 kts | 216° |
| 2026-05-07 08:35 | -30.95680 | 151.61561 | 36158 ft | 420 kts | 216° |
| 2026-05-07 08:35 | -31.01049 | 151.59024 | 36165 ft | 420 kts | 216° |
| 2026-05-07 08:36 | -31.06468 | 151.56467 | 36181 ft | 419 kts | 216° |
| 2026-05-07 08:36 | -31.11879 | 151.53915 | 36241 ft | 420 kts | 216° |
| 2026-05-07 08:37 | -31.17247 | 151.51385 | 35794 ft | 419 kts | 216° |
| 2026-05-07 08:37 | -31.19947 | 151.50112 | 35306 ft | 417 kts | 216° |
| 2026-05-07 08:37 | -31.22635 | 151.48839 | 34854 ft | 421 kts | 216° |
| 2026-05-07 08:38 | -31.25393 | 151.47506 | 34361 ft | 434 kts | 216° |
| 2026-05-07 08:38 | -31.28200 | 151.46153 | 33816 ft | 439 kts | 215° |
| 2026-05-07 08:38 | -31.31033 | 151.44804 | 33328 ft | 441 kts | 214° |
| 2026-05-07 08:38 | -31.33887 | 151.43459 | 32885 ft | 442 kts | 214° |
| 2026-05-07 08:39 | -31.36823 | 151.42310 | 32270 ft | 453 kts | 204° |
| 2026-05-07 08:39 | -31.40025 | 151.41969 | 31651 ft | 473 kts | 189° |
| 2026-05-07 08:39 | -31.43334 | 151.42566 | 31014 ft | 489 kts | 177° |
| 2026-05-07 08:39 | -31.46630 | 151.43514 | 30375 ft | 486 kts | 176° |
| 2026-05-07 08:40 | -31.49899 | 151.44471 | 29677 ft | 482 kts | 176° |
| 2026-05-07 08:40 | -31.53147 | 151.45430 | 29067 ft | 481 kts | 176° |
| 2026-05-07 08:40 | -31.56392 | 151.46387 | 28459 ft | 480 kts | 176° |
| 2026-05-07 08:40 | -31.59630 | 151.47338 | 27951 ft | 477 kts | 176° |
| 2026-05-07 08:41 | -31.62817 | 151.48273 | 27274 ft | 466 kts | 177° |
| 2026-05-07 08:41 | -31.65938 | 151.49185 | 26741 ft | 458 kts | 177° |
| 2026-05-07 08:41 | -31.69011 | 151.50078 | 26195 ft | 452 kts | 177° |
| 2026-05-07 08:41 | -31.72047 | 151.50956 | 25633 ft | 447 kts | 178° |
| 2026-05-07 08:42 | -31.75046 | 151.51822 | 25072 ft | 441 kts | 178° |
| 2026-05-07 08:42 | -31.78009 | 151.52682 | 24502 ft | 436 kts | 178° |
| 2026-05-07 08:42 | -31.80899 | 151.53525 | 23971 ft | 431 kts | 178° |
| 2026-05-07 08:42 | -31.83787 | 151.54380 | 23409 ft | 425 kts | 177° |
| 2026-05-07 08:43 | -31.86639 | 151.55236 | 22943 ft | 419 kts | 178° |
| 2026-05-07 08:43 | -31.89418 | 151.56082 | 22396 ft | 407 kts | 178° |
| 2026-05-07 08:43 | -31.92144 | 151.56914 | 21810 ft | 401 kts | 178° |
| 2026-05-07 08:43 | -31.94832 | 151.57724 | 21289 ft | 397 kts | 178° |
| 2026-05-07 08:44 | -31.97494 | 151.58516 | 20780 ft | 393 kts | 178° |
| 2026-05-07 08:44 | -32.00129 | 151.59296 | 20268 ft | 388 kts | 178° |
| 2026-05-07 08:44 | -32.02732 | 151.60070 | 19761 ft | 384 kts | 178° |
| 2026-05-07 08:44 | -32.05305 | 151.60838 | 19256 ft | 379 kts | 178° |
| 2026-05-07 08:45 | -32.07846 | 151.61599 | 18748 ft | 374 kts | 178° |
| 2026-05-07 08:45 | -32.10361 | 151.62355 | 18230 ft | 372 kts | 178° |
| 2026-05-07 08:45 | -32.12854 | 151.63106 | 17806 ft | 369 kts | 177° |
| 2026-05-07 08:45 | -32.15356 | 151.63852 | 17215 ft | 375 kts | 176° |
| 2026-05-07 08:46 | -32.17898 | 151.64602 | 16690 ft | 378 kts | 175° |
| 2026-05-07 08:46 | -32.20446 | 151.65364 | 16199 ft | 376 kts | 175° |
| 2026-05-07 08:46 | -32.22980 | 151.66132 | 15681 ft | 374 kts | 175° |
| 2026-05-07 08:46 | -32.25486 | 151.66896 | 15185 ft | 371 kts | 174° |
| 2026-05-07 08:47 | -32.27950 | 151.67648 | 14687 ft | 369 kts | 174° |
| 2026-05-07 08:47 | -32.30430 | 151.68400 | 14192 ft | 367 kts | 173° |
| 2026-05-07 08:47 | -32.32899 | 151.69143 | 13647 ft | 365 kts | 173° |
| 2026-05-07 08:47 | -32.35353 | 151.69877 | 13150 ft | 362 kts | 173° |
| 2026-05-07 08:48 | -32.37785 | 151.70598 | 12667 ft | 359 kts | 172° |
| 2026-05-07 08:48 | -32.40206 | 151.71313 | 12176 ft | 358 kts | 172° |
| 2026-05-07 08:48 | -32.42612 | 151.72021 | 11682 ft | 355 kts | 172° |
| 2026-05-07 08:48 | -32.44934 | 151.73041 | 11202 ft | 360 kts | 157° |
| 2026-05-07 08:49 | -32.47091 | 151.74554 | 10706 ft | 359 kts | 154° |
| 2026-05-07 08:49 | -32.49221 | 151.76094 | 10212 ft | 356 kts | 154° |
| 2026-05-07 08:49 | -32.51319 | 151.77625 | 9699 ft | 352 kts | 154° |
| 2026-05-07 08:49 | -32.53398 | 151.79142 | 9160 ft | 349 kts | 154° |
| 2026-05-07 08:50 | -32.55460 | 151.80642 | 8630 ft | 345 kts | 154° |
| 2026-05-07 08:50 | -32.57498 | 151.82121 | 8154 ft | 342 kts | 154° |
| 2026-05-07 08:50 | -32.59517 | 151.83585 | 7691 ft | 335 kts | 154° |
| 2026-05-07 08:50 | -32.61409 | 151.84963 | 7490 ft | 304 kts | 154° |
| 2026-05-07 08:51 | -32.63129 | 151.86223 | 7320 ft | 278 kts | 154° |
| 2026-05-07 08:51 | -32.64737 | 151.87402 | 6855 ft | 268 kts | 155° |
| 2026-05-07 08:51 | -32.66292 | 151.88530 | 6273 ft | 264 kts | 155° |
| 2026-05-07 08:51 | -32.67826 | 151.89643 | 6055 ft | 257 kts | 155° |
| 2026-05-07 08:52 | -32.69363 | 151.90750 | 5594 ft | 258 kts | 156° |
| 2026-05-07 08:52 | -32.70861 | 151.91892 | 5178 ft | 248 kts | 153° |
| 2026-05-07 08:52 | -32.72226 | 151.93031 | 5011 ft | 234 kts | 153° |
| 2026-05-07 08:52 | -32.73528 | 151.94140 | 4829 ft | 227 kts | 153° |
| 2026-05-07 08:53 | -32.74806 | 151.95230 | 4693 ft | 226 kts | 153° |
| 2026-05-07 08:53 | -32.76110 | 151.96334 | 4203 ft | 235 kts | 153° |
| 2026-05-07 08:53 | -32.77478 | 151.97484 | 3622 ft | 245 kts | 153° |
| 2026-05-07 08:53 | -32.78861 | 151.98649 | 3381 ft | 240 kts | 154° |
| 2026-05-07 08:54 | -32.80307 | 151.99429 | 3254 ft | 219 kts | 175° |
| 2026-05-07 08:54 | -32.81745 | 151.99569 | 3150 ft | 198 kts | 193° |
| 2026-05-07 08:54 | -32.83015 | 151.99219 | 3011 ft | 181 kts | 208° |
| 2026-05-07 08:54 | -32.84088 | 151.98503 | 2755 ft | 174 kts | 222° |
| 2026-05-07 08:55 | -32.84937 | 151.97503 | 2519 ft | 171 kts | 234° |
| 2026-05-07 08:55 | -32.85519 | 151.96321 | 2315 ft | 158 kts | 247° |
| 2026-05-07 08:55 | -32.85813 | 151.95128 | 2097 ft | 144 kts | 259° |
| 2026-05-07 08:55 | -32.85868 | 151.93981 | 1904 ft | 135 kts | 269° |
| 2026-05-07 08:56 | -32.85730 | 151.92902 | 1722 ft | 131 kts | 278° |
| 2026-05-07 08:56 | -32.85420 | 151.91897 | 1546 ft | 129 kts | 288° |
| 2026-05-07 08:56 | -32.84949 | 151.90993 | 1395 ft | 127 kts | 299° |
| 2026-05-07 08:56 | -32.84389 | 151.90208 | 1319 ft | 125 kts | 303° |
| 2026-05-07 08:57 | -32.83828 | 151.89424 | 1295 ft | 125 kts | 303° |
| 2026-05-07 08:57 | -32.83257 | 151.88636 | 1073 ft | 125 kts | 302° |
| 2026-05-07 08:57 | -32.82699 | 151.87844 | 852 ft | 123 kts | 304° |
| 2026-05-07 08:57 | -32.82140 | 151.87059 | 683 ft | 125 kts | 305° |
| 2026-05-07 08:58 | -32.81581 | 151.86262 | 545 ft | 123 kts | 304° |
| 2026-05-07 08:58 | -32.81014 | 151.85471 | 325 ft | 128 kts | 307° |
| 2026-05-07 08:58 | -32.80447 | 151.84672 | 86 ft | 126 kts | 308° |
| 2026-05-07 08:58 | -32.79931 | 151.83954 | 36 ft | 97 kts | 312° |
| 2026-05-07 08:59 | -32.79599 | 151.83494 | 28 ft | 52 kts | 310° |
| 2026-05-07 08:59 | -32.79389 | 151.83200 | 31 ft | 44 kts | 311° |
| 2026-05-07 08:59 | -32.79229 | 151.82999 | 32 ft | 17 kts | 351° |
| 2026-05-07 08:59 | -32.79150 | 151.83066 | 34 ft | 14 kts | 46° |
| 2026-05-07 09:00 | -32.79165 | 151.83181 | 34 ft | 17 kts | 131° |
| 2026-05-07 09:00 | -32.79249 | 151.83294 | 33 ft | 20 kts | 129° |
| 2026-05-07 09:00 | -32.79352 | 151.83437 | 30 ft | 25 kts | 131° |
| 2026-05-07 09:00 | -32.79475 | 151.83606 | 29 ft | 29 kts | 130° |
| 2026-05-07 09:01 | -32.79612 | 151.83798 | 32 ft | 31 kts | 130° |
| 2026-05-07 09:01 | -32.79756 | 151.84002 | 34 ft | 34 kts | 130° |
| 2026-05-07 09:01 | -32.79915 | 151.84223 | 33 ft | 37 kts | 131° |
| 2026-05-07 09:01 | -32.80079 | 151.84453 | 30 ft | 35 kts | 131° |
| 2026-05-07 09:02 | -32.80217 | 151.84535 | 30 ft | 12 kts | 216° |
| 2026-05-07 09:02 | -32.80290 | 151.84466 | 30 ft | 15 kts | 222° |
| 2026-05-07 09:02 | -32.80381 | 151.84375 | 29 ft | 19 kts | 218° |
| 2026-05-07 09:02 | -32.80464 | 151.84247 | 27 ft | 19 kts | 278° |
| 2026-05-07 09:03 | -32.80375 | 151.84111 | 27 ft | 22 kts | 309° |
| 2026-05-07 09:03 | -32.80369 | 151.84046 | 28 ft | 3 kts | 255° |
| 2026-05-07 09:03 | -32.80373 | 151.84029 | 29 ft | 0 kts | 253° |